Terminal Aerodrome Forecast
Issued by NWS Wilmington, NC

Home | Current Version | Previous Version | Text Only | Print | Product List | Glossary On
Versions: 1 2 3 4 5 6 7 8 9 10 11 12 13 14
057
FTUS42 KILM 240520
TAFMYR
TAF
KMYR 240520Z 2406/2506 00000KT P6SM SKC
     FM240900 00000KT 4SM BR SKC
     FM241200 21007KT P6SM FEW060
     FM241900 20013KT P6SM SKC
     FM250000 19005KT P6SM SKC
      AMD LTD TO CLD VIS AND WIND TIL 241100=

USA.gov is the U.S. government's official web portal to all federal, state and local government web resources and services.